< < Back
Terminal Aerodrome Forecast


Current Version              Previous Versions:   1  2  3  4  5  6  7  8  9  

Terminal Aerodrome Forecast

308
FTUS42 KILM 251121
TAFFLO
TAF
KFLO 251121Z 2512/2612 04005KT P6SM SKC
     FM251800 13007KT P6SM FEW250
     FM260200 VRB02KT P6SM SKC=

Latest METAR

105
SAUS70 KWBC 261000 RRJ
MTRFLO
METAR KFLO 260953Z AUTO 00000KT 10SM CLR 23/21 A3010 RMK AO2 SLP190
T02330211


USA.gov is the U.S. government's official web portal to all federal, state and local government web resources and services.